Terminal Aerodrome Forecast
Issued by NWS

Home | Current Version | Previous Version | Text Only | Print | Product List | Glossary On
Versions: 1 2 3 4 5 6 7 8 9 10 11 12 13 14 15 16
000
FTUS43 KIWX 051120
TAFSBN
TAF
KSBN 051120Z 0512/0612 VRB02KT P6SM SCT250
     FM051700 34008KT P6SM FEW050 SCT250
     FM060200 04004KT P6SM SCT100 BKN250=

USA.gov is the U.S. government's official web portal to all federal, state and local government web resources and services.